createdAt,value
2017-12-23T00:02:02.595Z,21.00
2017-12-23T00:04:29.307Z,18.70
2017-12-23T00:06:55.987Z,17.70
2017-12-23T00:09:22.916Z,19.25
2017-12-23T00:11:49.626Z,20.85
2017-12-23T00:14:16.307Z,21.77
2017-12-23T00:16:42.974Z,20.70
2017-12-23T00:19:09.683Z,22.13
2017-12-23T00:21:36.366Z,22.20
2017-12-23T00:26:34.058Z,23.10
2017-12-23T00:29:01.083Z,21.20
2017-12-23T00:31:27.772Z,20.52
2017-12-23T00:33:54.479Z,23.40
2017-12-23T00:36:21.159Z,21.00
2017-12-23T00:38:47.850Z,23.90
2017-12-23T00:41:14.559Z,22.95
2017-12-23T00:43:41.251Z,21.62
2017-12-23T00:46:07.947Z,22.92
2017-12-23T00:48:36.279Z,23.73
2017-12-23T00:51:02.963Z,21.98
2017-12-23T00:53:29.648Z,22.13
2017-12-23T00:55:56.351Z,23.27
2017-12-23T00:58:23.074Z,24.65
2017-12-23T01:00:49.753Z,24.90
2017-12-23T01:03:16.462Z,25.95
2017-12-23T01:05:43.559Z,26.95
2017-12-23T01:08:10.247Z,26.85
2017-12-23T01:10:36.979Z,26.37
2017-12-23T01:13:03.668Z,25.85
2017-12-23T01:15:30.355Z,25.30
2017-12-23T01:17:57.062Z,28.23
2017-12-23T01:20:23.755Z,25.83
2017-12-23T01:22:50.442Z,26.75
2017-12-23T01:25:17.153Z,27.48
2017-12-23T01:27:43.835Z,27.48
2017-12-23T01:30:10.781Z,29.05
2017-12-23T01:32:37.897Z,28.48
2017-12-23T01:35:04.587Z,31.40
2017-12-23T01:37:31.272Z,27.52
2017-12-23T01:39:58.603Z,29.08
2017-12-23T01:42:25.867Z,27.90
2017-12-23T01:44:52.560Z,30.67
2017-12-23T01:47:19.270Z,30.08
2017-12-23T01:49:46.203Z,32.10
2017-12-23T01:52:12.890Z,29.10
2017-12-23T01:54:39.602Z,32.17
2017-12-23T01:57:06.295Z,31.90
2017-12-23T01:59:32.979Z,31.95
2017-12-23T02:02:00.072Z,33.75
2017-12-23T02:04:27.028Z,31.75
2017-12-23T02:06:53.722Z,32.65
2017-12-23T02:09:20.428Z,32.65
2017-12-23T02:11:47.114Z,33.83
2017-12-23T02:14:13.802Z,36.65
2017-12-23T02:16:40.529Z,29.67
2017-12-23T02:19:07.571Z,32.17
2017-12-23T02:21:34.258Z,28.85
2017-12-23T02:24:00.974Z,31.75
2017-12-23T02:26:34.872Z,31.83
2017-12-23T02:29:02.232Z,29.70
2017-12-23T02:31:28.918Z,31.65
2017-12-23T02:33:55.645Z,30.10
2017-12-23T02:36:22.342Z,31.23
2017-12-23T02:38:49.051Z,31.70
2017-12-23T02:41:15.751Z,29.85
2017-12-23T02:43:42.464Z,28.77
2017-12-23T02:46:09.150Z,29.75
2017-12-23T02:48:35.851Z,27.65
2017-12-23T02:51:02.969Z,28.58
2017-12-23T02:53:30.121Z,29.75
2017-12-23T02:55:56.817Z,30.10
2017-12-23T02:58:23.532Z,30.98
2017-12-23T03:00:50.223Z,29.55
2017-12-23T03:03:16.935Z,31.65
2017-12-23T03:05:43.864Z,31.48
2017-12-23T03:08:10.816Z,29.17
2017-12-23T03:10:38.374Z,30.48
2017-12-23T03:13:05.085Z,29.42
2017-12-23T03:15:31.770Z,26.05
2017-12-23T03:17:58.816Z,28.83
2017-12-23T03:20:25.502Z,26.73
2017-12-23T03:22:52.210Z,25.23
2017-12-23T03:25:18.891Z,26.50
2017-12-23T03:27:46.637Z,26.55
2017-12-23T03:30:14.412Z,25.90
2017-12-23T03:32:41.097Z,27.33
2017-12-23T03:35:07.803Z,27.92
2017-12-23T03:37:34.482Z,28.52
2017-12-23T03:40:01.911Z,25.15
2017-12-23T03:42:29.103Z,24.67
2017-12-23T03:44:56.576Z,23.40
2017-12-23T03:47:23.709Z,25.17
2017-12-23T03:49:50.423Z,23.48
2017-12-23T03:52:17.110Z,23.58
2017-12-23T03:54:43.818Z,23.67
2017-12-23T03:57:10.499Z,23.50
2017-12-23T03:59:37.203Z,23.85
2017-12-23T04:02:04.153Z,23.58
2017-12-23T04:04:30.862Z,25.15
2017-12-23T04:06:57.818Z,23.87
2017-12-23T04:09:24.534Z,24.40
2017-12-23T04:11:51.222Z,24.05
2017-12-23T04:14:17.922Z,26.62
2017-12-23T04:16:44.604Z,25.05
2017-12-23T04:19:11.302Z,23.25
2017-12-23T04:21:37.982Z,28.15
2017-12-23T04:24:04.691Z,25.60
2017-12-23T04:26:31.382Z,24.48
2017-12-23T04:28:58.087Z,26.35
2017-12-23T04:31:24.784Z,25.12
2017-12-23T04:33:51.495Z,23.38
2017-12-23T04:36:18.427Z,24.55
2017-12-23T04:38:45.134Z,25.27
2017-12-23T04:41:11.810Z,26.92
2017-12-23T04:43:38.794Z,25.58
2017-12-23T04:46:05.519Z,26.25
2017-12-23T04:48:32.218Z,26.25
2017-12-23T04:50:58.935Z,26.37
2017-12-23T04:53:25.619Z,25.62
2017-12-23T04:55:52.329Z,25.17
2017-12-23T04:58:19.015Z,25.10
2017-12-23T05:00:45.724Z,24.60
2017-12-23T05:03:12.403Z,23.65
2017-12-23T05:05:39.107Z,24.63
2017-12-23T05:08:05.798Z,24.15
2017-12-23T05:10:32.500Z,22.60
2017-12-23T05:12:59.481Z,21.65
2017-12-23T05:15:26.183Z,21.52
2017-12-23T05:17:52.866Z,23.67
2017-12-23T05:20:19.574Z,21.85
2017-12-23T05:22:46.479Z,20.12
2017-12-23T05:25:13.199Z,20.42
2017-12-23T05:27:39.886Z,19.30
2017-12-23T05:30:07.019Z,18.12
2017-12-23T05:32:33.719Z,19.42
2017-12-23T05:35:00.424Z,18.08
2017-12-23T05:37:27.339Z,19.83
2017-12-23T05:39:54.059Z,18.77
2017-12-23T05:42:20.750Z,16.65
2017-12-23T05:44:47.459Z,19.55
2017-12-23T05:47:14.148Z,20.85
2017-12-23T05:49:41.915Z,19.20
2017-12-23T05:52:08.607Z,18.05
2017-12-23T05:54:35.318Z,17.37
2017-12-23T05:57:02.018Z,16.70
2017-12-23T05:59:28.710Z,17.50
2017-12-23T06:01:55.871Z,15.00
2017-12-23T06:04:22.882Z,15.32
2017-12-23T06:06:49.583Z,14.43
2017-12-23T06:09:16.271Z,13.43
2017-12-23T06:11:42.982Z,13.05
2017-12-23T06:14:09.662Z,11.38
2017-12-23T06:16:36.367Z,10.20
2017-12-23T06:19:03.067Z,10.02
2017-12-23T06:21:29.787Z,7.90
2017-12-23T06:23:56.468Z,8.35
2017-12-23T06:26:23.169Z,9.15
2017-12-23T06:28:49.845Z,8.38
2017-12-23T06:31:17.164Z,8.60
2017-12-23T06:33:43.846Z,7.55
2017-12-23T06:36:10.551Z,7.05
2017-12-23T06:38:37.243Z,7.62
2017-12-23T06:41:03.950Z,8.30
2017-12-23T06:43:30.639Z,8.73
2017-12-23T06:45:57.776Z,10.90
2017-12-23T06:48:25.657Z,10.77
2017-12-23T06:50:53.070Z,9.48
2017-12-23T06:53:19.991Z,10.98
2017-12-23T06:55:47.974Z,11.20
2017-12-23T06:58:15.400Z,10.75
2017-12-23T07:00:42.108Z,10.60
2017-12-23T07:03:08.804Z,11.82
2017-12-23T07:05:35.526Z,11.52
2017-12-23T07:08:02.202Z,13.23
2017-12-23T07:10:28.883Z,9.85
2017-12-23T07:12:55.590Z,9.88
2017-12-23T07:15:22.278Z,9.90
2017-12-23T07:17:48.987Z,8.50
2017-12-23T07:20:16.119Z,7.37
2017-12-23T07:22:42.823Z,7.75
2017-12-23T07:25:09.499Z,8.07
2017-12-23T07:27:36.212Z,8.20
2017-12-23T07:30:03.175Z,7.28
2017-12-23T07:32:30.132Z,8.50
2017-12-23T07:34:56.815Z,7.90
2017-12-23T07:37:23.514Z,7.85
2017-12-23T07:39:50.664Z,7.55
2017-12-23T07:42:17.799Z,7.70
2017-12-23T07:44:44.478Z,8.65
2017-12-23T07:47:11.183Z,8.25
2017-12-23T07:49:37.862Z,9.35
2017-12-23T07:52:04.571Z,7.40
2017-12-23T07:54:31.254Z,7.53
2017-12-23T07:56:57.966Z,7.00
2017-12-23T07:59:24.646Z,7.50
2017-12-23T08:01:51.345Z,7.65
2017-12-23T08:04:18.026Z,8.07
2017-12-23T08:06:44.741Z,8.23
2017-12-23T08:09:11.428Z,7.65
2017-12-23T08:11:38.474Z,8.82
2017-12-23T08:14:05.152Z,7.10
2017-12-23T08:16:32.576Z,8.20
2017-12-23T08:18:59.258Z,8.00
2017-12-23T08:21:25.948Z,8.05
2017-12-23T08:23:52.899Z,7.80
2017-12-23T08:26:19.586Z,6.55
2017-12-23T08:28:46.295Z,8.05
2017-12-23T08:31:13.207Z,7.60
2017-12-23T08:33:39.915Z,7.07
2017-12-23T08:36:06.594Z,6.78
2017-12-23T08:38:33.294Z,7.72
2017-12-23T08:40:59.979Z,7.10
2017-12-23T08:43:26.680Z,6.60
2017-12-23T08:45:53.354Z,7.68
2017-12-23T08:48:20.042Z,6.70
2017-12-23T08:50:46.736Z,7.05
2017-12-23T08:53:13.415Z,7.10
2017-12-23T08:55:40.115Z,8.00
2017-12-23T08:58:06.790Z,8.50
2017-12-23T09:00:33.497Z,8.13
2017-12-23T09:03:00.186Z,9.18
2017-12-23T09:05:26.891Z,9.85
2017-12-23T09:07:53.580Z,9.90
2017-12-23T09:10:20.299Z,10.40
2017-12-23T09:12:46.984Z,11.15
2017-12-23T09:15:13.699Z,11.63
2017-12-23T09:17:40.386Z,12.50
2017-12-23T09:20:08.520Z,13.75
2017-12-23T09:22:35.205Z,12.82
2017-12-23T09:25:01.907Z,12.80
2017-12-23T09:27:28.623Z,14.60
2017-12-23T09:29:55.309Z,15.90
2017-12-23T09:32:22.416Z,15.95
2017-12-23T09:34:49.620Z,18.42
2017-12-23T09:37:16.323Z,18.73
2017-12-23T09:39:43.049Z,18.20
2017-12-23T09:42:09.751Z,16.87
2017-12-23T09:44:36.439Z,18.52
2017-12-23T09:47:03.154Z,19.20
2017-12-23T09:49:30.336Z,17.67
2017-12-23T09:51:57.053Z,19.15
2017-12-23T09:54:24.315Z,18.92
2017-12-23T09:56:51.032Z,18.75
2017-12-23T09:59:17.712Z,19.73
2017-12-23T10:01:44.827Z,19.30
2017-12-23T10:04:11.515Z,19.42
2017-12-23T10:06:39.039Z,20.20
2017-12-23T10:09:05.721Z,18.02
2017-12-23T10:11:32.788Z,18.95
2017-12-23T10:13:59.520Z,19.10
2017-12-23T10:16:26.232Z,20.05
2017-12-23T10:18:53.339Z,20.98
2017-12-23T10:21:20.051Z,20.60
2017-12-23T10:23:46.748Z,18.85
2017-12-23T10:26:15.839Z,19.80
2017-12-23T10:28:42.835Z,19.20
2017-12-23T10:31:10.394Z,18.62
2017-12-23T10:33:37.088Z,22.48
2017-12-23T10:36:04.658Z,20.23
2017-12-23T10:38:31.342Z,21.00
2017-12-23T10:40:58.038Z,21.27
2017-12-23T10:43:24.760Z,20.02
2017-12-23T10:45:51.455Z,20.90
2017-12-23T10:48:18.166Z,22.50
2017-12-23T10:50:44.851Z,21.75
2017-12-23T10:53:12.595Z,22.70
2017-12-23T10:55:39.282Z,22.35
2017-12-23T10:58:06.793Z,22.02
2017-12-23T11:00:33.490Z,23.60
2017-12-23T11:03:00.195Z,24.98
2017-12-23T11:05:26.887Z,24.02
2017-12-23T11:07:53.586Z,21.20
2017-12-23T11:10:20.528Z,23.38
2017-12-23T11:12:47.950Z,25.30
2017-12-23T11:15:14.647Z,23.23
2017-12-23T11:17:41.354Z,22.40
2017-12-23T11:20:08.035Z,24.17
2017-12-23T11:22:34.748Z,25.05
2017-12-23T11:25:01.447Z,24.90
2017-12-23T11:27:28.668Z,24.83
2017-12-23T11:29:55.391Z,24.90
2017-12-23T11:32:22.106Z,26.85
2017-12-23T11:34:48.795Z,26.40
2017-12-23T11:37:16.299Z,26.15
2017-12-23T11:39:42.973Z,24.70
2017-12-23T11:42:15.648Z,27.10
2017-12-23T11:44:42.336Z,26.25
2017-12-23T11:47:09.038Z,25.95
2017-12-23T11:49:35.751Z,23.60
2017-12-23T11:52:02.462Z,25.10
2017-12-23T11:54:29.152Z,23.08
2017-12-23T11:56:55.867Z,24.00
2017-12-23T11:59:22.959Z,20.08
2017-12-23T12:01:49.651Z,22.62
2017-12-23T12:04:16.358Z,22.45
2017-12-23T12:06:43.050Z,21.12
2017-12-23T12:09:09.759Z,19.90
2017-12-23T12:11:36.444Z,21.62
2017-12-23T12:14:03.915Z,23.77
2017-12-23T12:16:30.611Z,23.20
2017-12-23T12:18:58.078Z,22.50
2017-12-23T12:21:25.370Z,23.52
2017-12-23T12:23:52.471Z,22.80
2017-12-23T12:26:19.858Z,22.45
2017-12-23T12:28:46.594Z,23.10
2017-12-23T12:31:13.296Z,23.12
2017-12-23T12:33:40.011Z,24.23
2017-12-23T12:36:06.943Z,25.62
2017-12-23T12:38:34.470Z,25.10
2017-12-23T12:41:01.154Z,23.67
2017-12-23T12:43:27.882Z,23.58
2017-12-23T12:45:56.041Z,23.20
2017-12-23T12:48:23.091Z,21.85
2017-12-23T12:50:49.783Z,23.80
2017-12-23T12:53:17.693Z,21.33
2017-12-23T12:55:44.388Z,23.20
2017-12-23T12:58:14.996Z,22.73
2017-12-23T13:00:42.005Z,22.83
2017-12-23T13:03:08.727Z,25.50
2017-12-23T13:05:35.419Z,23.33
2017-12-23T13:08:02.533Z,23.02
2017-12-23T13:10:29.880Z,20.80
2017-12-23T13:12:56.594Z,21.73
2017-12-23T13:15:23.882Z,23.02
2017-12-23T13:17:50.590Z,21.05
2017-12-23T13:20:18.471Z,21.95
2017-12-23T13:22:45.151Z,21.87
2017-12-23T13:25:11.856Z,21.08
2017-12-23T13:27:39.075Z,22.37
2017-12-23T13:30:06.238Z,23.00
2017-12-23T13:32:32.931Z,21.00
2017-12-23T13:34:59.643Z,23.67
2017-12-23T13:37:26.328Z,23.08
2017-12-23T13:39:53.043Z,20.65
2017-12-23T13:42:19.787Z,22.27
2017-12-23T13:44:46.490Z,23.15
2017-12-23T13:47:13.170Z,24.45
2017-12-23T13:49:40.615Z,23.62
2017-12-23T13:52:07.299Z,23.83
2017-12-23T13:54:34.015Z,23.05
2017-12-23T13:57:00.702Z,24.42
2017-12-23T13:59:27.412Z,24.60
2017-12-23T14:01:54.127Z,23.62
2017-12-23T14:04:20.830Z,23.87
2017-12-23T14:06:47.764Z,23.10
2017-12-23T14:09:14.450Z,25.58
2017-12-23T14:11:41.164Z,24.33
2017-12-23T14:14:07.851Z,23.92
2017-12-23T14:16:34.566Z,23.42
2017-12-23T14:19:01.243Z,23.95
2017-12-23T14:21:27.951Z,24.45
2017-12-23T14:23:54.647Z,26.85
2017-12-23T14:26:25.381Z,22.30
2017-12-23T14:28:52.321Z,24.05
2017-12-23T14:31:19.465Z,22.95
2017-12-23T14:33:46.159Z,23.38
2017-12-23T14:36:12.876Z,21.80
2017-12-23T14:38:39.563Z,20.92
2017-12-23T14:43:37.247Z,22.50
2017-12-23T14:46:04.630Z,20.80
2017-12-23T14:48:31.344Z,23.62
2017-12-23T14:50:58.044Z,23.42
2017-12-23T14:53:24.764Z,21.67
2017-12-23T14:55:51.457Z,22.65
2017-12-23T14:58:19.094Z,23.52
2017-12-23T15:00:45.775Z,22.58
2017-12-23T15:03:13.387Z,23.73
2017-12-23T15:05:40.071Z,23.87
2017-12-23T15:08:07.512Z,24.25
2017-12-23T15:10:34.731Z,23.58
2017-12-23T15:13:01.410Z,26.40
2017-12-23T15:15:28.489Z,24.17
2017-12-23T15:17:55.423Z,23.50
2017-12-23T15:20:23.131Z,26.37
2017-12-23T15:22:50.588Z,25.65
2017-12-23T15:25:17.297Z,26.77
2017-12-23T15:27:43.991Z,24.75
2017-12-23T15:30:10.956Z,25.30
2017-12-23T15:32:38.518Z,25.40
2017-12-23T15:35:05.223Z,28.95
2017-12-23T15:37:31.913Z,24.80
2017-12-23T15:39:58.623Z,25.55
2017-12-23T15:42:25.303Z,27.35
2017-12-23T15:44:52.011Z,27.13
2017-12-23T15:47:18.940Z,27.62
2017-12-23T15:49:45.959Z,28.40
2017-12-23T15:52:13.199Z,27.45
2017-12-23T15:54:40.360Z,29.15
2017-12-23T15:57:07.275Z,28.80
2017-12-23T15:59:33.967Z,28.12
2017-12-23T16:02:00.678Z,29.23
2017-12-23T16:04:27.375Z,27.80
2017-12-23T16:06:54.561Z,26.17
2017-12-23T16:09:21.245Z,29.60
2017-12-23T16:11:47.955Z,29.02
2017-12-23T16:14:14.635Z,27.67
2017-12-23T16:16:41.815Z,27.83
2017-12-23T16:19:08.503Z,28.75
2017-12-23T16:21:35.587Z,29.08
2017-12-23T16:24:02.291Z,29.17
2017-12-23T16:26:28.983Z,28.52
2017-12-23T16:28:55.704Z,27.27
2017-12-23T16:31:23.119Z,27.98
2017-12-23T16:33:49.826Z,27.65
2017-12-23T16:36:16.535Z,28.60
2017-12-23T16:38:43.244Z,27.13
2017-12-23T16:41:10.664Z,29.17
2017-12-23T16:43:37.369Z,28.20
2017-12-23T16:46:04.052Z,29.70
2017-12-23T16:48:30.759Z,28.52
2017-12-23T16:50:57.448Z,28.83
2017-12-23T16:53:24.163Z,30.33
2017-12-23T16:55:51.274Z,30.10
2017-12-23T16:58:17.995Z,29.58
2017-12-23T17:00:44.692Z,30.67
2017-12-23T17:03:11.745Z,28.83
2017-12-23T17:05:39.236Z,30.52
2017-12-23T17:08:06.708Z,28.80
2017-12-23T17:10:33.658Z,29.45
2017-12-23T17:13:00.623Z,29.10
2017-12-23T17:15:27.306Z,29.48
2017-12-23T17:17:54.028Z,30.73
2017-12-23T17:20:20.732Z,29.92
2017-12-23T17:22:47.467Z,31.35
2017-12-23T17:25:14.160Z,30.88
2017-12-23T17:27:40.853Z,29.65
2017-12-23T17:30:13.328Z,30.67
2017-12-23T17:32:40.024Z,32.75
2017-12-23T17:35:07.006Z,28.85
2017-12-23T17:37:34.569Z,28.23
2017-12-23T17:40:01.285Z,29.30
2017-12-23T17:42:27.971Z,31.87
2017-12-23T17:44:54.687Z,30.02
2017-12-23T17:47:21.403Z,29.37
2017-12-23T17:49:48.142Z,29.55
2017-12-23T17:52:14.871Z,30.58
2017-12-23T17:54:43.339Z,27.85
2017-12-23T17:57:11.691Z,29.87
2017-12-23T17:59:38.415Z,30.80
2017-12-23T18:09:38.614Z,28.52
2017-12-23T18:12:06.968Z,28.67
2017-12-23T18:14:33.706Z,28.35
2017-12-23T18:19:35.691Z,28.15
2017-12-23T18:24:45.819Z,27.05
2017-12-23T18:27:13.524Z,27.15
2017-12-23T18:29:41.558Z,28.10
2017-12-23T18:32:08.912Z,27.62
2017-12-23T18:34:37.874Z,28.87
2017-12-23T18:37:04.997Z,27.98
2017-12-23T18:39:32.919Z,26.95
2017-12-23T18:41:59.716Z,25.77
2017-12-23T18:44:30.313Z,27.30
2017-12-23T18:47:00.869Z,27.95
2017-12-23T18:49:28.865Z,28.52
2017-12-23T18:51:55.827Z,26.90
2017-12-23T18:54:24.844Z,26.40
2017-12-23T18:56:53.294Z,26.42
2017-12-23T18:59:23.222Z,27.20
2017-12-23T19:01:55.217Z,24.30
2017-12-23T19:04:26.230Z,24.25
2017-12-23T19:09:28.866Z,22.80
2017-12-23T19:11:55.870Z,22.95
2017-12-23T19:16:55.859Z,23.83
2017-12-23T19:19:24.887Z,25.92
2017-12-23T19:21:51.864Z,21.67
2017-12-23T19:24:19.331Z,23.40
2017-12-23T19:26:46.966Z,24.92
2017-12-23T19:34:20.251Z,24.05
2017-12-23T19:36:51.424Z,23.80
2017-12-23T19:39:22.174Z,25.08
2017-12-23T19:44:24.786Z,24.42
2017-12-23T19:46:52.842Z,22.25
2017-12-23T19:49:19.582Z,23.38
2017-12-23T19:51:48.613Z,21.50
2017-12-23T19:54:15.356Z,23.52
2017-12-23T19:56:43.300Z,22.35
2017-12-23T20:01:41.675Z,24.10
2017-12-23T20:04:09.831Z,22.90
2017-12-23T20:11:46.149Z,23.20
2017-12-23T20:14:13.886Z,23.90
2017-12-23T20:16:42.838Z,24.58
2017-12-23T20:19:12.167Z,24.85
2017-12-23T20:21:40.865Z,24.83
2017-12-23T20:24:10.543Z,25.40
2017-12-23T20:26:38.509Z,26.05
2017-12-23T20:29:06.811Z,27.70
2017-12-23T20:31:36.467Z,27.00
2017-12-23T20:34:10.534Z,27.37
2017-12-23T20:36:37.295Z,28.25
2017-12-23T20:39:05.411Z,28.08
2017-12-23T20:44:07.248Z,29.40
2017-12-23T20:46:37.234Z,29.45
2017-12-23T20:49:04.610Z,29.00
2017-12-23T20:51:32.371Z,29.73
2017-12-23T20:53:59.089Z,32.53
2017-12-23T20:56:26.978Z,29.60
2017-12-23T20:58:53.961Z,28.98
2017-12-23T21:01:21.006Z,30.65
2017-12-23T21:03:48.884Z,30.20
2017-12-23T21:06:16.502Z,30.42
2017-12-23T21:08:43.956Z,26.20
2017-12-23T21:11:11.165Z,27.20
2017-12-23T21:13:38.921Z,28.15
2017-12-23T21:16:06.307Z,27.00
2017-12-23T21:18:39.474Z,25.67
2017-12-23T21:21:08.451Z,27.40
2017-12-23T21:23:35.250Z,27.98
2017-12-23T21:26:02.088Z,28.50
2017-12-23T21:28:29.691Z,28.35
2017-12-23T21:30:56.454Z,28.12
2017-12-23T21:33:23.199Z,29.60
2017-12-23T21:38:21.793Z,30.17
2017-12-23T21:40:48.544Z,27.87
2017-12-23T21:43:15.286Z,29.40
2017-12-23T21:45:42.000Z,30.08
2017-12-23T21:48:09.155Z,29.52
2017-12-23T21:50:36.830Z,30.10
2017-12-23T21:53:06.618Z,29.50
2017-12-23T21:55:36.640Z,32.13
2017-12-23T21:58:04.324Z,27.70
2017-12-23T22:00:31.131Z,28.80
2017-12-23T22:02:58.279Z,27.80
2017-12-23T22:05:26.866Z,28.38
2017-12-23T22:07:53.978Z,26.50
2017-12-23T22:10:21.592Z,25.10
2017-12-23T22:12:48.401Z,24.75
2017-12-23T22:15:18.991Z,23.85
2017-12-23T22:20:23.944Z,21.20
2017-12-23T22:22:54.280Z,20.20
2017-12-23T22:25:22.964Z,20.30
2017-12-23T22:27:50.724Z,20.92
2017-12-23T22:30:17.491Z,22.25
2017-12-23T22:32:46.653Z,20.02
2017-12-23T22:35:13.746Z,19.35
2017-12-23T22:37:41.494Z,21.08
2017-12-23T22:40:08.244Z,19.95
2017-12-23T22:42:35.523Z,20.92
2017-12-23T22:45:05.135Z,19.77
2017-12-23T22:47:32.043Z,20.42
2017-12-23T22:50:00.079Z,22.23
2017-12-23T22:52:26.910Z,23.17
2017-12-23T22:54:54.751Z,22.17
2017-12-23T22:57:21.911Z,21.10
2017-12-23T22:59:49.065Z,22.62
2017-12-23T23:02:16.542Z,23.73
2017-12-23T23:04:43.829Z,22.58
2017-12-23T23:07:10.988Z,21.20
2017-12-23T23:09:39.974Z,22.85
2017-12-23T23:12:08.791Z,22.30
2017-12-23T23:14:35.546Z,22.27
2017-12-23T23:17:04.365Z,22.37
2017-12-23T23:19:31.728Z,22.58
2017-12-23T23:21:58.832Z,22.73
2017-12-23T23:24:25.992Z,22.70
2017-12-23T23:29:27.411Z,22.90
2017-12-23T23:31:55.235Z,21.33
2017-12-23T23:34:24.391Z,23.10
2017-12-23T23:36:57.467Z,23.83
2017-12-23T23:47:19.486Z,21.58
2017-12-23T23:52:22.699Z,22.40
2017-12-23T23:54:51.915Z,21.17
2017-12-23T23:57:23.207Z,22.90
2017-12-23T23:59:51.805Z,20.48
